Historyczne dane pomiarowe

Dodano dane terminowe – wersja testowa.

Dane z okresu 1951-2019

Wersja bazy: 1.34 [2019-03-16, lista zmian], aktualizacja planowana na 2019-04-15

Dane meteo z obszaru Polski uzyskane na podstawie danych udostępnionych przez Instytut Meteorologii i Gospodarki Wodnej – Państwowy Instytut Badawczy.

 

Wybierz Datę:    

       

TemperaturaWilgotnośćWiatrCiśnienieOpadyŚniegCzas trwania zjawisk
 Stacja t tx tn tng RH VA  wxwx mslp ppp RRR   cm mm wxwxwxwxwxwxwx
1961-08-14 14.1 20.4 6.8--- 7.0 1.0---- 0.0------------
1961-08-13 13.0 19.5 9.0--- 1.7 1.7---- 0.0------------
1961-08-12 17.2 23.3 11.6--- 5.3 1.3---- 0.0------------
1961-08-11 15.1 17.7 13.3--- 6.7 0.7---- 1.8------------
1961-08-10 16.7 21.1 10.1--- 6.7 1.3---- 12.2------------
1961-08-09 18.2 24.7 11.7--- 2.7 1.3---- 0.0------------
1961-08-08 16.4 22.4 8.9--- 6.0 1.3---- 0.7------------
1961-08-07 14.8 18.0 11.7--- 6.7 1.0---- 4.0------------
1961-08-06 20.1 28.6 15.7--- 4.0 2.0---- 1.5------------
1961-08-05 17.3 23.1 12.8--- 6.7 1.3---- 2.4------------
1961-08-04 13.9 17.0 7.7--- 7.7 2.0---- 3.2------------
1961-08-03 13.7 19.7 10.3--- 4.7 1.7---- 0.1------------
1961-08-02 16.0 23.0 9.6--- 6.3 1.0---- 4.8------------
1961-08-01 14.4 18.0 12.3--- 6.7 1.7---- 14.7------------
1961-07-31 13.7 15.7 12.6--- 8.0 1.7---- 23.8------------
1961-07-30 15.5 19.6 10.9--- 6.7 1.0---- 0.0------------
1961-07-29 13.8 18.0 10.4--- 6.3 1.3---- 0.0------------
1961-07-28 13.8 15.5 11.7--- 6.7 1.0---- 3.2------------
1961-07-27 16.4 21.6 13.8--- 6.3 2.3---- 0.7------------
1961-07-26 17.5 21.3 11.9--- 8.0 2.7---- 2.0------------
1961-07-25 14.5 17.6 10.3--- 6.3 2.0---- 0.7------------
1961-07-24 13.8 17.5 11.7--- 6.7 2.0---- 0.0------------
1961-07-23 14.7 17.8 12.5--- 7.0 1.7---- 0.4------------
1961-07-22 15.2 20.2 12.1--- 7.0 2.0---- 1.6------------
1961-07-21 15.0 18.2 11.6--- 7.7 1.7---- 6.6------------
1961-07-20 14.8 20.7 9.5--- 5.3 1.7---- 13.8------------
1961-07-19 15.6 21.7 10.9--- 6.7 1.7---- 0.0------------
1961-07-18 14.9 20.1 11.5--- 7.7 1.0---- 2.4------------
1961-07-17 15.5 21.7 9.7--- 6.7 1.0---- 6.7------------
1961-07-16 13.1 16.8 9.3--- 6.3 0.7---- 3.2------------
1961-07-15 17.2 21.6 9.7--- 4.3 1.3---- 8.8------------
1961-07-14 13.1 19.0 11.8--- 7.0 2.3---- 0.2------------
1961-07-13 20.4 29.1 12.4--- 4.7 1.3---- 11.0------------
1961-07-12 17.9 25.2 12.5--- 6.0 1.0---- 0.0------------
1961-07-11 15.8 20.6 8.6--- 5.7 2.0---- 5.0------------
1961-07-10 13.2 18.4 9.7--- 6.7 1.7---- 6.7------------
1961-07-09 13.8 18.1 9.5--- 4.7 1.3---- 5.7------------
1961-07-08 14.1 20.6 8.0--- 8.0 1.0---- 15.6------------
1961-07-07 13.3 18.0 7.5--- 5.7 3.3---- 0.2------------
1961-07-06 11.5 15.3 7.1--- 5.7 1.3---- 0.2------------
1961-07-05 12.9 18.0 10.3--- 5.0 3.3---- 0.0------------
1961-07-04 15.9 21.5 11.1--- 5.7 1.0---- 0.0------------
1961-07-03 24.1 33.2 11.7--- 5.7 2.7---- 0.0------------
1961-07-02 22.3 30.8 8.9--- 0.3 1.0---- 0.0------------
1961-07-01 20.5 29.6 5.9--- 0.7 1.0---- 0.0------------
1961-06-30 19.3 27.1 10.4--- 0.0 2.0---- 0.0------------
1961-06-29 15.5 20.9 10.9--- 5.3 2.0---- 0.0------------
1961-06-28 15.0 22.6 12.6--- 3.7 4.7---- 0.0------------
1961-06-27 23.3 29.5 13.1--- 4.3 2.0---- 0.0------------
1961-06-26 21.6 28.7 13.1--- 0.0 2.3---- 0.0------------
1961-06-25 21.9 28.3 13.2--- 2.7 3.3---- 0.0------------
1961-06-24 18.1 22.8 11.9--- 4.7 2.3---- 0.0------------
1961-06-23 18.6 23.1 10.3--- 4.0 2.7---- 0.0------------
1961-06-22 16.5 21.9 5.4--- 3.7 1.7---- 0.0------------
1961-06-21 13.8 21.6 6.7--- 4.3 2.0---- 0.0------------
1961-06-20 13.7 19.8 7.7--- 2.7 1.7---- 0.0------------
1961-06-19 14.8 21.6 11.0--- 1.7 2.0---- 0.4------------
1961-06-18 21.8 27.7 8.2--- 6.0 2.7---- 0.0------------
1961-06-17 17.8 23.9 8.2--- 5.3 1.0---- 0.0------------
1961-06-16 13.0 15.5 11.1--- 6.3 2.3---- 0.3------------
3296.8 ms

 

Źródłem pochodzenia danych jest Instytut Meteorologii i Gospodarki Wodnej – Państwowy Instytut Badawczy. Dane Instytutu Meteorologii i Gospodarki Wodnej – Państwowego Instytutu Badawczego zostały przetworzone.

Dane źródłowe można odnaleźć na stronie https://dane.imgw.pl